Time;durP1;ratioP1;P1;durP2;ratioP2;P2;SDS_P1;SDS_P2;PMS_P1;PMS_P2;Temp;Humidity;BMP_temperature;BMP_pressure;BME280_temperature;BME280_humidity;BME280_pressure;Samples;Min_cycle;Max_cycle;Signal;HPM_P1;HPM_P2
2022/07/16 00:02:49;;;;;;;3.63;1.90;;;23.10;51.40;;;;;;5115558;28;20178;-90
2022/07/16 00:05:17;;;;;;;1.80;1.60;;;23.10;51.50;;;;;;5097767;28;20530;-90
2022/07/16 00:07:43;;;;;;;1.83;1.53;;;23.10;51.50;;;;;;5114642;28;20188;-90
2022/07/16 00:10:09;;;;;;;2.43;1.70;;;23.10;51.60;;;;;;5097862;28;20173;-90
2022/07/16 00:12:35;;;;;;;1.97;1.60;;;23.10;51.60;;;;;;5097408;28;20216;-90
2022/07/16 00:15:03;;;;;;;4.10;1.67;;;23.10;51.60;;;;;;5098018;28;20181;-90
2022/07/16 00:17:29;;;;;;;1.87;1.77;;;23.10;52.00;;;;;;5097266;28;20181;-90
2022/07/16 00:19:55;;;;;;;2.33;1.60;;;23.00;51.50;;;;;;5097379;28;20231;-90
2022/07/16 00:22:21;;;;;;;1.97;1.60;;;22.90;51.80;;;;;;5097767;28;20527;-91
2022/07/16 00:24:47;;;;;;;2.00;1.60;;;22.80;51.90;;;;;;5097998;28;20181;-91
2022/07/16 00:27:13;;;;;;;1.83;1.70;;;22.80;52.00;;;;;;5099278;28;20177;-92
2022/07/16 00:29:38;;;;;;;3.30;1.67;;;22.90;52.00;;;;;;5102584;28;20204;-92
2022/07/16 00:32:04;;;;;;;2.60;1.87;;;22.90;52.00;;;;;;5102710;28;20200;-91
2022/07/16 00:34:30;;;;;;;2.33;1.60;;;23.00;51.90;;;;;;5103022;28;20272;-92
2022/07/16 00:36:56;;;;;;;2.47;1.87;;;23.00;51.90;;;;;;5101803;28;20194;-91
2022/07/16 00:39:22;;;;;;;1.77;1.60;;;23.00;51.90;;;;;;5101997;28;20575;-91
2022/07/16 00:41:48;;;;;;;2.23;1.80;;;23.00;51.90;;;;;;5100680;28;20169;-91
2022/07/16 00:44:18;;;;;;;1.80;1.57;;;23.00;51.90;;;;;;5101207;28;20241;-91
2022/07/16 00:46:46;;;;;;;1.80;1.70;;;23.00;52.00;;;;;;5119423;28;20172;-91
2022/07/16 00:49:13;;;;;;;2.03;1.83;;;23.00;52.00;;;;;;5101886;28;20234;-91
2022/07/16 00:51:49;;;;;;;2.47;1.60;;;23.00;52.10;;;;;;5101595;28;20303;-91
2022/07/16 00:54:16;;;;;;;2.97;1.60;;;23.00;52.10;;;;;;5101535;28;20177;-92
2022/07/16 00:56:42;;;;;;;1.73;1.60;;;23.00;52.10;;;;;;5101452;28;20184;-90
2022/07/16 00:59:08;;;;;;;2.47;1.77;;;23.00;52.10;;;;;;5101484;28;20173;-90
2022/07/16 01:01:34;;;;;;;2.03;1.50;;;23.00;52.10;;;;;;5100739;28;20659;-90
2022/07/16 01:04:04;;;;;;;2.97;1.77;;;23.00;52.10;;;;;;5100336;28;20189;-90
2022/07/16 01:06:31;;;;;;;2.17;1.60;;;23.00;52.20;;;;;;5100620;28;20183;-90
2022/07/16 01:08:57;;;;;;;1.93;1.70;;;23.00;52.20;;;;;;5100612;28;20525;-90
2022/07/16 01:11:23;;;;;;;2.47;1.70;;;23.00;52.20;;;;;;5101013;28;20223;-90
2022/07/16 01:13:50;;;;;;;3.77;1.80;;;23.00;52.20;;;;;;5100420;28;20174;-90
2022/07/16 01:16:17;;;;;;;2.07;1.70;;;22.90;52.30;;;;;;5100379;28;20185;-90
2022/07/16 01:18:43;;;;;;;1.80;1.57;;;22.90;52.30;;;;;;5100582;28;20174;-90
2022/07/16 01:21:10;;;;;;;2.27;1.90;;;22.90;52.30;;;;;;5101903;28;20178;-90
2022/07/16 01:23:35;;;;;;;3.17;1.70;;;22.90;52.30;;;;;;5100870;28;20273;-90
2022/07/16 01:26:01;;;;;;;4.03;1.90;;;22.90;52.30;;;;;;5118567;28;20256;-90
2022/07/16 01:28:28;;;;;;;1.93;1.70;;;22.90;52.40;;;;;;5101300;28;20250;-90
2022/07/16 01:31:00;;;;;;;2.70;1.87;;;22.90;52.40;;;;;;5101959;28;20210;-91
2022/07/16 01:33:28;;;;;;;3.37;1.83;;;22.90;52.40;;;;;;5101325;28;20178;-91
2022/07/16 01:35:58;;;;;;;2.13;1.77;;;22.90;52.50;;;;;;5100526;28;20241;-91
2022/07/16 01:38:24;;;;;;;3.40;1.87;;;22.90;52.50;;;;;;5100922;28;20178;-91
2022/07/16 01:40:50;;;;;;;2.77;1.90;;;22.80;52.50;;;;;;5100359;28;20173;-91
2022/07/16 01:43:24;;;;;;;2.37;1.80;;;22.80;52.50;;;;;;5098903;28;20315;-91
2022/07/16 01:45:50;;;;;;;2.73;1.70;;;22.80;52.60;;;;;;5100391;28;20177;-91
2022/07/16 01:48:18;;;;;;;2.67;1.80;;;22.80;52.60;;;;;;5099160;28;20551;-91
2022/07/16 01:50:43;;;;;;;3.60;1.80;;;22.80;52.60;;;;;;5099844;28;20335;-91
2022/07/16 01:53:10;;;;;;;2.60;1.80;;;22.80;52.60;;;;;;5099736;28;20222;-91
2022/07/16 01:55:37;;;;;;;2.10;1.90;;;22.80;52.60;;;;;;5100746;28;20170;-91
2022/07/16 01:58:04;;;;;;;2.10;1.80;;;22.80;52.60;;;;;;5099390;28;20319;-91
2022/07/16 02:00:30;;;;;;;2.13;1.90;;;22.80;52.70;;;;;;5100146;28;20196;-92
2022/07/16 02:02:56;;;;;;;2.33;1.87;;;22.80;52.70;;;;;;5100314;28;20189;-92
2022/07/16 02:05:22;;;;;;;2.70;1.70;;;22.70;52.70;;;;;;5100761;28;20174;-92
2022/07/16 02:07:48;;;;;;;2.70;1.90;;;22.70;52.70;;;;;;5116922;28;20165;-92
2022/07/16 02:10:14;;;;;;;2.27;1.60;;;22.70;52.70;;;;;;5117917;28;20192;-93
2022/07/16 02:12:40;;;;;;;2.73;1.90;;;22.70;52.70;;;;;;5099535;28;20206;-92
2022/07/16 02:15:07;;;;;;;2.27;1.73;;;22.70;52.80;;;;;;5117735;28;20171;-91
2022/07/16 02:17:34;;;;;;;1.97;1.60;;;22.70;53.20;;;;;;5100528;28;20272;-92
2022/07/16 02:20:00;;;;;;;2.73;1.90;;;22.70;52.80;;;;;;5099996;28;20310;-92
2022/07/16 02:22:28;;;;;;;1.90;1.70;;;22.70;52.80;;;;;;5099831;28;20176;-92
2022/07/16 02:24:54;;;;;;;2.70;1.90;;;22.70;52.90;;;;;;5099166;28;20170;-92
2022/07/16 02:27:19;;;;;;;3.00;1.87;;;22.70;52.90;;;;;;5099960;28;20250;-92
2022/07/16 02:29:45;;;;;;;1.87;1.60;;;22.70;52.90;;;;;;5098586;28;20196;-92
2022/07/16 02:32:11;;;;;;;3.90;1.70;;;22.70;52.90;;;;;;5099071;28;20490;-92
2022/07/16 02:34:37;;;;;;;2.20;1.60;;;22.70;52.90;;;;;;5097485;28;20173;-92
2022/07/16 02:37:02;;;;;;;2.63;1.80;;;22.70;53.00;;;;;;5116751;28;20178;-90
2022/07/16 02:39:28;;;;;;;2.00;1.70;;;22.70;53.00;;;;;;5115436;28;20172;-90
2022/07/16 02:41:54;;;;;;;2.67;1.67;;;22.70;53.00;;;;;;5097821;28;20435;-91
2022/07/16 02:44:20;;;;;;;2.10;1.70;;;22.70;53.00;;;;;;5097693;28;20207;-90
2022/07/16 02:46:46;;;;;;;2.03;1.63;;;22.70;53.10;;;;;;5097441;28;20521;-91
2022/07/16 02:49:11;;;;;;;2.40;1.80;;;22.70;53.10;;;;;;5097980;28;20177;-90
2022/07/16 02:51:37;;;;;;;2.07;1.87;;;22.60;53.10;;;;;;5097039;28;20208;-90
2022/07/16 02:54:04;;;;;;;2.83;1.77;;;22.60;53.20;;;;;;5098130;28;20424;-90
2022/07/16 02:56:31;;;;;;;2.80;1.60;;;22.70;53.20;;;;;;5116604;28;20509;-90
2022/07/16 02:58:56;;;;;;;2.33;1.70;;;22.60;53.20;;;;;;5115867;28;20184;-90
2022/07/16 03:01:23;;;;;;;1.87;1.70;;;22.60;53.20;;;;;;5098904;28;20182;-90
2022/07/16 03:03:48;;;;;;;2.43;1.90;;;22.60;53.20;;;;;;5098651;28;20190;-90
2022/07/16 03:06:15;;;;;;;3.03;2.00;;;22.60;53.20;;;;;;5098277;28;20176;-91
2022/07/16 03:08:40;;;;;;;3.40;1.80;;;22.60;53.30;;;;;;5099057;28;20181;-91
2022/07/16 03:11:06;;;;;;;2.07;1.63;;;22.60;53.30;;;;;;5099160;28;20534;-91
2022/07/16 03:13:32;;;;;;;4.13;2.00;;;22.60;53.30;;;;;;5098637;28;20191;-91
2022/07/16 03:15:58;;;;;;;1.80;1.70;;;22.60;53.30;;;;;;5098706;28;20178;-91
2022/07/16 03:18:24;;;;;;;3.03;1.80;;;22.60;53.30;;;;;;5099260;28;20181;-91
2022/07/16 03:20:50;;;;;;;3.07;1.57;;;22.60;53.30;;;;;;5116557;28;20235;-91
2022/07/16 03:23:15;;;;;;;1.80;1.70;;;22.60;53.30;;;;;;5098108;28;20590;-91
2022/07/16 03:25:41;;;;;;;2.83;1.70;;;22.60;53.30;;;;;;5098025;28;20184;-91
2022/07/16 03:28:08;;;;;;;1.57;1.47;;;22.60;53.40;;;;;;5098404;28;20177;-91
2022/07/16 03:30:35;;;;;;;1.67;1.50;;;22.60;53.40;;;;;;5098619;28;20173;-91
2022/07/16 03:33:02;;;;;;;2.53;1.67;;;22.60;53.40;;;;;;5098713;28;20542;-91
2022/07/16 03:35:28;;;;;;;3.53;1.87;;;22.60;53.40;;;;;;5099067;28;20184;-91
2022/07/16 03:40:39;;;;;;;1.77;1.50;;;22.60;53.40;;;;;;5116065;28;20180;-91
2022/07/16 03:43:04;;;;;;;3.47;1.60;;;22.60;53.40;;;;;;5099244;28;20450;-90
2022/07/16 03:45:30;;;;;;;2.80;1.80;;;22.60;53.40;;;;;;5098370;28;20188;-91
2022/07/16 03:47:56;;;;;;;2.60;1.83;;;22.60;53.40;;;;;;5097835;28;20176;-91
2022/07/16 03:50:22;;;;;;;2.60;1.70;;;22.60;53.40;;;;;;5099195;28;20175;-90
2022/07/16 03:52:47;;;;;;;2.10;1.60;;;22.60;53.40;;;;;;5098558;28;20300;-91
2022/07/16 03:55:14;;;;;;;3.20;2.00;;;22.60;53.40;;;;;;5098307;28;20188;-91
2022/07/16 03:57:40;;;;;;;2.57;1.73;;;22.60;53.50;;;;;;5099024;28;20332;-91
2022/07/16 04:00:08;;;;;;;2.07;1.60;;;22.60;53.50;;;;;;5098460;28;20181;-91
2022/07/16 04:02:34;;;;;;;4.03;1.90;;;22.60;53.50;;;;;;5097515;28;20456;-91
2022/07/16 04:05:00;;;;;;;2.57;1.73;;;22.60;53.50;;;;;;5115672;28;20563;-91
2022/07/16 04:07:26;;;;;;;2.43;1.67;;;22.60;53.50;;;;;;5096866;28;20602;-91
2022/07/16 04:09:52;;;;;;;1.87;1.70;;;22.60;53.50;;;;;;5097929;28;20525;-91
2022/07/16 04:12:23;;;;;;;2.20;1.63;;;22.60;53.50;;;;;;5098215;28;20202;-90
2022/07/16 04:14:51;;;;;;;1.83;1.73;;;22.60;53.50;;;;;;5098207;28;20177;-92
2022/07/16 04:17:16;;;;;;;3.13;1.80;;;22.60;53.50;;;;;;5098465;28;20176;-92
2022/07/16 04:19:42;;;;;;;1.97;1.70;;;22.60;53.50;;;;;;5098705;28;20293;-92
2022/07/16 04:22:08;;;;;;;1.90;1.70;;;22.60;53.50;;;;;;5098683;28;20180;-92
2022/07/16 04:24:34;;;;;;;2.23;1.70;;;22.60;53.50;;;;;;5098935;28;20201;-92
2022/07/16 04:26:59;;;;;;;2.57;1.70;;;22.70;53.50;;;;;;5097733;28;20183;-92
2022/07/16 04:29:25;;;;;;;2.40;1.60;;;22.60;53.50;;;;;;5097872;28;20270;-92
2022/07/16 04:31:51;;;;;;;2.17;1.73;;;22.60;53.50;;;;;;5097161;28;20487;-92
2022/07/16 04:34:17;;;;;;;1.83;1.63;;;22.60;53.50;;;;;;5096922;28;20184;-92
2022/07/16 04:36:44;;;;;;;2.67;1.97;;;22.60;53.50;;;;;;5097330;28;20204;-92
2022/07/16 04:39:10;;;;;;;3.50;1.77;;;22.60;53.50;;;;;;5098066;28;20332;-92
2022/07/16 04:41:36;;;;;;;1.93;1.73;;;22.60;53.60;;;;;;5097598;28;20204;-92
2022/07/16 04:44:02;;;;;;;1.73;1.60;;;22.60;53.60;;;;;;5097346;28;20178;-92
2022/07/16 04:46:28;;;;;;;2.00;1.90;;;22.60;53.60;;;;;;5097613;28;20436;-92
2022/07/16 04:48:53;;;;;;;3.20;1.60;;;22.60;53.60;;;;;;5097295;28;20176;-92
2022/07/16 04:51:19;;;;;;;2.77;1.73;;;22.60;53.60;;;;;;5097834;28;20203;-91
2022/07/16 04:53:45;;;;;;;1.87;1.60;;;22.60;53.70;;;;;;5096836;28;20483;-90
2022/07/16 04:56:11;;;;;;;2.70;1.80;;;22.60;53.70;;;;;;5097990;28;20169;-90
2022/07/16 04:58:37;;;;;;;3.17;1.93;;;22.60;53.70;;;;;;5099170;28;20170;-90
2022/07/16 05:01:03;;;;;;;2.23;1.80;;;22.60;53.70;;;;;;5096496;28;20177;-91
2022/07/16 05:03:29;;;;;;;1.97;1.70;;;22.60;53.70;;;;;;5097188;28;20193;-91
2022/07/16 05:05:54;;;;;;;4.00;1.87;;;22.60;53.60;;;;;;5097713;28;20275;-90
2022/07/16 05:08:20;;;;;;;2.50;1.77;;;22.70;53.70;;;;;;5097758;28;20169;-90
2022/07/16 05:10:46;;;;;;;3.07;1.90;;;22.60;53.60;;;;;;5097260;28;20170;-91
2022/07/16 05:13:12;;;;;;;2.50;1.83;;;22.70;53.60;;;;;;5099093;28;20578;-90
2022/07/16 05:15:38;;;;;;;2.33;1.93;;;22.70;53.60;;;;;;5101440;28;20201;-92
2022/07/16 05:18:04;;;;;;;2.80;2.10;;;22.70;53.60;;;;;;5101013;28;20168;-92
2022/07/16 05:20:31;;;;;;;3.17;2.00;;;22.70;53.50;;;;;;5100570;28;20174;-92
2022/07/16 05:23:00;;;;;;;2.77;2.10;;;22.80;53.50;;;;;;5100748;28;20178;-92
2022/07/16 05:25:26;;;;;;;3.00;2.10;;;22.80;53.40;;;;;;5100615;28;20170;-92
2022/07/16 05:27:52;;;;;;;1.93;1.73;;;22.80;53.40;;;;;;5100603;28;20172;-92
2022/07/16 05:30:18;;;;;;;2.03;1.67;;;22.80;53.30;;;;;;5100427;28;20177;-92
2022/07/16 05:32:45;;;;;;;2.20;1.97;;;22.80;53.30;;;;;;5098777;28;20213;-92
2022/07/16 05:35:12;;;;;;;1.73;1.63;;;22.90;53.30;;;;;;5098927;28;20170;-92
2022/07/16 05:37:39;;;;;;;3.20;2.00;;;22.90;53.20;;;;;;5099465;28;20169;-92
2022/07/16 05:40:05;;;;;;;2.60;1.97;;;23.00;53.20;;;;;;5099304;28;20177;-92
2022/07/16 05:42:31;;;;;;;2.00;1.77;;;23.00;53.10;;;;;;5098370;28;20169;-92
2022/07/16 05:44:57;;;;;;;2.30;1.80;;;23.10;53.10;;;;;;5116213;28;20170;-92
2022/07/16 05:47:23;;;;;;;3.37;1.90;;;23.10;53.00;;;;;;5097711;28;20173;-92
2022/07/16 05:49:49;;;;;;;2.87;2.00;;;23.20;52.90;;;;;;5097729;28;20166;-91
2022/07/16 05:52:14;;;;;;;4.90;2.13;;;23.30;53.10;;;;;;5098143;28;20236;-92
2022/07/16 05:54:40;;;;;;;2.97;1.90;;;23.50;52.50;;;;;;5098450;28;20177;-92
2022/07/16 05:57:06;;;;;;;3.23;2.00;;;23.60;52.30;;;;;;5097893;28;20225;-92
2022/07/16 05:59:32;;;;;;;2.97;2.20;;;23.70;52.60;;;;;;5098610;28;20286;-92
2022/07/16 06:01:58;;;;;;;2.80;1.90;;;23.60;52.40;;;;;;5099112;28;20209;-92
2022/07/16 06:04:24;;;;;;;4.47;1.90;;;23.60;52.30;;;;;;5099940;28;20358;-92
2022/07/16 06:06:49;;;;;;;3.20;2.07;;;23.50;52.20;;;;;;5116775;28;20257;-91
2022/07/16 06:09:15;;;;;;;2.93;1.80;;;23.50;52.50;;;;;;5099132;28;20180;-91
2022/07/16 06:11:41;;;;;;;3.00;2.10;;;23.40;52.80;;;;;;5099777;28;20277;-92
2022/07/16 06:14:07;;;;;;;2.67;2.00;;;23.40;52.80;;;;;;5098955;28;20235;-92
2022/07/16 06:16:33;;;;;;;2.70;2.03;;;23.40;52.90;;;;;;5099170;28;20227;-92
2022/07/16 06:18:59;;;;;;;2.00;1.80;;;23.50;52.60;;;;;;5117155;28;20355;-92
2022/07/16 06:21:24;;;;;;;2.43;1.87;;;23.50;52.60;;;;;;5098640;28;20212;-92
2022/07/16 06:23:50;;;;;;;3.57;1.90;;;23.50;52.50;;;;;;5097940;28;20181;-91
2022/07/16 06:26:16;;;;;;;5.50;2.00;;;23.50;52.50;;;;;;5098351;28;20464;-92
2022/07/16 06:28:42;;;;;;;3.00;2.10;;;23.50;52.60;;;;;;5098567;28;20216;-92
2022/07/16 06:31:07;;;;;;;3.33;1.97;;;23.50;52.80;;;;;;5099043;28;20201;-92
2022/07/16 06:33:33;;;;;;;5.00;2.00;;;23.40;53.00;;;;;;5097869;28;20174;-92
2022/07/16 06:35:59;;;;;;;3.07;2.20;;;23.40;53.50;;;;;;5098911;28;20181;-92
2022/07/16 06:38:25;;;;;;;2.33;2.13;;;23.40;53.50;;;;;;5097427;28;20175;-92
2022/07/16 06:40:51;;;;;;;3.37;2.20;;;23.30;53.30;;;;;;5098204;28;20272;-91
2022/07/16 06:43:17;;;;;;;3.17;2.20;;;23.40;53.80;;;;;;5098481;28;20198;-92
2022/07/16 06:45:45;;;;;;;4.20;2.30;;;23.30;54.40;;;;;;5098765;28;20178;-91
2022/07/16 06:48:11;;;;;;;3.93;2.17;;;23.40;54.60;;;;;;5099047;28;20182;-91
2022/07/16 06:50:37;;;;;;;2.97;2.10;;;23.30;55.00;;;;;;5098724;28;20256;-92
2022/07/16 06:53:03;;;;;;;3.20;2.00;;;23.40;54.80;;;;;;5098874;28;20170;-92
2022/07/16 06:55:29;;;;;;;2.67;1.87;;;23.50;53.90;;;;;;5098346;28;20169;-92
2022/07/16 06:57:55;;;;;;;2.10;1.90;;;23.70;53.30;;;;;;5099191;28;20166;-92
2022/07/16 07:00:21;;;;;;;2.80;1.97;;;24.00;52.50;;;;;;5099815;28;20226;-92
2022/07/16 07:02:47;;;;;;;2.57;1.90;;;24.20;52.90;;;;;;5097765;28;20182;-92
2022/07/16 07:05:12;;;;;;;3.20;1.80;;;24.30;52.60;;;;;;5097950;28;20197;-92
2022/07/16 07:07:38;;;;;;;3.33;2.10;;;24.30;52.70;;;;;;5097648;28;20504;-93
2022/07/16 07:10:04;;;;;;;2.73;1.90;;;24.20;53.60;;;;;;5096626;28;20299;-93
2022/07/16 07:12:30;;;;;;;2.10;1.90;;;24.10;52.80;;;;;;5098586;28;20197;-93
2022/07/16 07:14:56;;;;;;;2.97;1.73;;;24.00;52.80;;;;;;5099522;28;20259;-93
2022/07/16 07:17:22;;;;;;;3.40;2.27;;;24.00;52.90;;;;;;5098517;28;20166;-92
2022/07/16 07:19:47;;;;;;;3.20;1.90;;;23.90;53.90;;;;;;5098213;28;20167;-93
2022/07/16 07:22:13;;;;;;;2.37;1.93;;;23.80;53.60;;;;;;5115544;28;20178;-92
2022/07/16 07:24:39;;;;;;;2.27;1.80;;;23.80;53.40;;;;;;5097754;28;20170;-92
2022/07/16 07:27:05;;;;;;;3.10;2.20;;;23.80;53.90;;;;;;5096734;28;20258;-93
2022/07/16 07:29:31;;;;;;;3.10;1.70;;;23.80;54.40;;;;;;5098762;28;20170;-91
2022/07/16 07:31:58;;;;;;;1.67;1.53;;;23.80;53.50;;;;;;5095511;28;20512;-91
2022/07/16 07:34:23;;;;;;;2.17;1.70;;;24.00;52.60;;;;;;5113609;28;20265;-91
2022/07/16 07:36:49;;;;;;;1.63;1.50;;;24.30;52.30;;;;;;5096895;28;20260;-91
2022/07/16 07:39:16;;;;;;;2.77;1.93;;;24.90;51.40;;;;;;5096207;28;20433;-91
2022/07/16 07:41:42;;;;;;;2.10;1.70;;;25.20;50.70;;;;;;5096940;28;20170;-91
2022/07/16 07:44:08;;;;;;;1.60;1.50;;;25.80;50.30;;;;;;5096533;28;20272;-91
2022/07/16 07:46:34;;;;;;;2.33;1.70;;;26.40;49.60;;;;;;5096431;28;20431;-91
2022/07/16 07:48:59;;;;;;;2.13;1.70;;;27.30;48.80;;;;;;5096364;28;20602;-91
2022/07/16 07:51:25;;;;;;;5.03;1.70;;;27.80;47.90;;;;;;5096064;28;20198;-91
2022/07/16 07:53:51;;;;;;;3.50;1.60;;;27.70;47.60;;;;;;5096170;28;20197;-92
2022/07/16 07:56:17;;;;;;;1.90;1.70;;;27.40;48.00;;;;;;5095742;28;20465;-91
2022/07/16 07:58:42;;;;;;;3.60;1.60;;;27.90;47.80;;;;;;5094224;28;20197;-91
2022/07/16 08:01:09;;;;;;;2.77;1.70;;;28.60;47.10;;;;;;5094939;28;20177;-91
2022/07/16 08:03:34;;;;;;;2.77;1.60;;;29.00;46.50;;;;;;5095875;28;20181;-92
2022/07/16 08:06:00;;;;;;;2.30;1.60;;;29.10;46.10;;;;;;5096489;28;20483;-93
2022/07/16 08:08:26;;;;;;;2.58;1.67;;;29.20;46.30;;;;;;5095936;28;20444;-92
2022/07/16 08:10:52;;;;;;;2.75;1.80;;;28.90;46.00;;;;;;5094661;28;20276;-92
2022/07/16 08:13:18;;;;;;;4.95;1.70;;;28.70;46.40;;;;;;5094845;28;20181;-92
2022/07/16 08:15:45;;;;;;;2.28;1.70;;;29.10;46.00;;;;;;5095471;28;20163;-93
2022/07/16 08:18:11;;;;;;;2.20;1.60;;;30.00;45.60;;;;;;5096200;28;20165;-92
2022/07/16 08:20:38;;;;;;;2.60;1.85;;;30.70;44.90;;;;;;5096926;28;20264;-92
2022/07/16 08:23:04;;;;;;;4.10;1.80;;;31.20;44.30;;;;;;5096447;28;20507;-92
2022/07/16 08:25:44;;;;;;;3.50;1.65;;;31.50;44.00;;;;;;5094583;28;20162;-93
2022/07/16 08:28:11;;;;;;;5.28;1.95;;;31.60;43.80;;;;;;5096162;28;20178;-93
2022/07/16 08:30:37;;;;;;;3.10;1.63;;;31.50;43.70;;;;;;5078616;28;20281;-93
2022/07/16 08:33:03;;;;;;;2.00;1.60;;;31.90;43.40;;;;;;5095221;28;20265;-93
2022/07/16 08:35:29;;;;;;;2.08;1.55;;;30.60;43.90;;;;;;5094543;28;20270;-92
2022/07/16 08:37:55;;;;;;;3.85;1.60;;;29.90;44.40;;;;;;5094136;28;20525;-91
2022/07/16 08:40:22;;;;;;;2.67;1.60;;;29.50;45.00;;;;;;5112493;28;20671;-91
2022/07/16 08:42:49;;;;;;;4.85;1.92;;;30.40;44.30;;;;;;5094311;28;20247;-91
2022/07/16 08:45:18;;;;;;;1.92;1.70;;;30.00;44.30;;;;;;5111883;28;20170;-91
2022/07/16 08:47:44;;;;;;;3.42;1.70;;;29.10;44.80;;;;;;5096068;28;20467;-91
2022/07/16 08:50:13;;;;;;;2.35;1.63;;;28.40;45.50;;;;;;5097444;28;20180;-92
2022/07/16 08:52:47;;;;;;;1.65;1.40;;;27.90;46.10;;;;;;5098000;28;20205;-92
2022/07/16 08:55:13;;;;;;;2.53;1.50;;;27.60;46.40;;;;;;5098515;28;20201;-92
2022/07/16 08:57:40;;;;;;;3.63;1.50;;;27.30;46.70;;;;;;5097881;28;20257;-90
2022/07/16 09:00:11;;;;;;;1.63;1.40;;;27.10;46.90;;;;;;5098072;28;20403;-92
2022/07/16 09:02:37;;;;;;;2.97;1.47;;;27.20;46.90;;;;;;5096012;28;20604;-91
2022/07/16 09:05:03;;;;;;;2.40;1.50;;;27.20;47.00;;;;;;5096306;28;20178;-91
2022/07/16 09:07:30;;;;;;;2.23;1.57;;;27.10;47.10;;;;;;5115100;28;20167;-91
2022/07/16 09:09:55;;;;;;;2.67;1.47;;;27.00;47.30;;;;;;5114155;28;20158;-91
2022/07/16 09:12:40;;;;;;;4.40;1.53;;;27.50;47.20;;;;;;5098597;28;20212;-91
2022/07/16 09:15:30;;;;;;;3.83;1.40;;;28.40;46.40;;;;;;5099014;28;20174;-91
2022/07/16 09:18:16;;;;;;;1.77;1.43;;;27.90;46.40;;;;;;5096266;28;20174;-91
2022/07/16 09:20:43;;;;;;;1.60;1.47;;;27.50;46.70;;;;;;5096082;28;20173;-90
2022/07/16 09:23:24;;;;;;;3.13;1.50;;;27.30;46.90;;;;;;5115772;28;20223;-91
2022/07/16 09:25:59;;;;;;;3.43;1.43;;;27.20;47.00;;;;;;5097941;28;20170;-91
2022/07/16 09:28:36;;;;;;;2.17;1.37;;;27.10;47.20;;;;;;5096788;28;20183;-90
2022/07/16 09:31:02;;;;;;;1.37;1.27;;;27.20;47.20;;;;;;5096759;28;20418;-92
2022/07/16 09:33:28;;;;;;;3.57;1.50;;;27.20;47.10;;;;;;5097935;28;20227;-91
2022/07/16 09:36:11;;;;;;;2.37;1.60;;;27.10;47.30;;;;;;5095224;28;20166;-92
2022/07/16 09:38:51;;;;;;;2.60;1.40;;;27.00;47.30;;;;;;5096893;28;20202;-91
2022/07/16 09:41:18;;;;;;;1.30;1.20;;;27.00;47.40;;;;;;5097774;28;20166;-91
2022/07/16 09:43:44;;;;;;;2.67;1.50;;;27.10;47.30;;;;;;5097097;28;20174;-91
2022/07/16 09:46:23;;;;;;;1.90;1.43;;;27.20;47.30;;;;;;5097094;28;20173;-90
2022/07/16 09:48:51;;;;;;;2.97;1.60;;;27.20;47.10;;;;;;5097059;28;20174;-91
2022/07/16 09:51:22;;;;;;;1.50;1.40;;;27.10;47.30;;;;;;5097038;28;20198;-91
2022/07/16 09:53:49;;;;;;;1.53;1.23;;;27.20;47.30;;;;;;5098351;28;20175;-92
2022/07/16 09:56:20;;;;;;;2.07;1.50;;;27.30;47.20;;;;;;5095382;28;20523;-91
2022/07/16 09:58:52;;;;;;;4.00;1.50;;;27.30;47.20;;;;;;5095934;28;20421;-91
2022/07/16 10:01:19;;;;;;;1.70;1.33;;;27.30;47.20;;;;;;5096449;28;20274;-91
2022/07/16 10:03:46;;;;;;;2.17;1.63;;;27.10;47.20;;;;;;5096573;28;20190;-91
2022/07/16 10:06:12;;;;;;;1.93;1.40;;;27.00;47.30;;;;;;5095974;28;20182;-91
2022/07/16 10:08:40;;;;;;;1.70;1.40;;;26.90;47.30;;;;;;5113441;28;20732;-91
2022/07/16 10:11:07;;;;;;;2.33;1.60;;;26.90;47.50;;;;;;5095340;28;20194;-91
2022/07/16 10:13:34;;;;;;;2.17;1.50;;;27.00;47.60;;;;;;5095647;28;20227;-90
2022/07/16 10:16:01;;;;;;;1.40;1.30;;;27.00;47.60;;;;;;5095450;28;20536;-92
2022/07/16 10:18:32;;;;;;;1.57;1.40;;;26.90;47.60;;;;;;5095899;28;20197;-90
2022/07/16 10:21:14;;;;;;;3.40;1.77;;;26.80;47.50;;;;;;5094444;28;20567;-90
2022/07/16 10:23:44;;;;;;;2.90;1.43;;;26.90;47.70;;;;;;5096187;28;20494;-92
2022/07/16 10:26:21;;;;;;;1.70;1.40;;;26.80;47.70;;;;;;5095516;28;20436;-92
2022/07/16 10:28:54;;;;;;;3.33;1.60;;;26.80;47.70;;;;;;5094832;28;20674;-93
2022/07/16 10:34:40;;;;;;;4.30;1.43;;;26.90;47.70;;;;;;5111665;28;20231;-92
2022/07/16 10:37:11;;;;;;;3.07;1.60;;;26.80;47.60;;;;;;5092997;28;20190;-90
2022/07/16 10:40:03;;;;;;;4.40;1.43;;;26.80;47.30;;;;;;5095212;28;20223;-92
2022/07/16 10:42:30;;;;;;;4.63;1.60;;;26.70;47.60;;;;;;5084714;28;20178;-91
2022/07/16 10:44:56;;;;;;;3.70;1.50;;;26.70;47.70;;;;;;5087334;28;20175;-91
2022/07/16 10:47:56;;;;;;;4.03;1.47;;;26.80;47.80;;;;;;5078736;28;20203;-91
2022/07/16 10:50:22;;;;;;;3.73;1.50;;;26.80;47.70;;;;;;5024741;28;20190;-92
2022/07/16 10:52:51;;;;;;;4.80;1.37;;;26.80;47.50;;;;;;5073935;28;20281;-93
2022/07/16 10:55:38;;;;;;;3.40;1.50;;;26.90;47.70;;;;;;5074529;28;20167;-92
2022/07/16 10:58:04;;;;;;;4.73;1.50;;;26.90;47.70;;;;;;5074202;28;20179;-92
2022/07/16 11:00:30;;;;;;;1.90;1.37;;;26.80;47.70;;;;;;5091295;28;20291;-92
2022/07/16 11:02:59;;;;;;;3.70;1.70;;;26.80;47.70;;;;;;5073506;28;20568;-93
2022/07/16 11:05:28;;;;;;;3.27;1.60;;;26.80;47.70;;;;;;5074668;28;20272;-93
2022/07/16 11:07:54;;;;;;;2.00;1.53;;;26.70;47.70;;;;;;5073449;28;20171;-93
2022/07/16 11:10:23;;;;;;;3.50;1.60;;;26.70;47.80;;;;;;5073743;28;20186;-91
2022/07/16 11:12:51;;;;;;;2.00;1.60;;;26.70;47.80;;;;;;5073812;28;20198;-92
2022/07/16 11:15:16;;;;;;;2.77;1.40;;;26.70;47.70;;;;;;5073705;28;20413;-92
2022/07/16 11:17:42;;;;;;;1.63;1.40;;;26.70;47.80;;;;;;5073493;28;20195;-93
2022/07/16 11:20:09;;;;;;;1.73;1.30;;;26.70;47.80;;;;;;5092804;28;20197;-93
2022/07/16 11:22:35;;;;;;;2.27;1.50;;;26.70;47.70;;;;;;5072126;28;20216;-92
2022/07/16 11:25:05;;;;;;;1.97;1.57;;;26.60;47.60;;;;;;5072163;28;20440;-92
2022/07/16 11:27:33;;;;;;;2.20;1.50;;;26.70;47.80;;;;;;5074868;28;20303;-92
2022/07/16 11:30:06;;;;;;;7.57;1.50;;;26.60;47.90;;;;;;5075603;28;20166;-90
2022/07/16 11:32:40;;;;;;;2.27;1.40;;;26.60;47.30;;;;;;5072650;28;20230;-89
2022/07/16 11:35:06;;;;;;;3.10;1.50;;;26.70;47.80;;;;;;5072026;28;20167;-93
2022/07/16 11:37:55;;;;;;;2.17;1.50;;;26.60;47.50;;;;;;5070281;28;20445;-91
2022/07/16 11:40:42;;;;;;;2.40;1.70;;;26.60;47.80;;;;;;5070291;28;20162;-92
2022/07/16 11:43:08;;;;;;;2.67;1.40;;;26.60;47.80;;;;;;5070552;28;20247;-90
2022/07/16 11:45:42;;;;;;;2.47;1.50;;;26.70;47.90;;;;;;5073861;28;20572;-91
2022/07/16 11:48:16;;;;;;;3.07;1.50;;;26.70;47.90;;;;;;5072751;28;20175;-90
2022/07/16 11:50:42;;;;;;;4.70;1.57;;;26.60;47.80;;;;;;5074491;28;20179;-91
2022/07/16 11:53:08;;;;;;;3.50;1.50;;;26.60;47.80;;;;;;5071813;28;20263;-91
2022/07/16 11:55:34;;;;;;;2.17;1.60;;;26.60;47.80;;;;;;5072841;28;20171;-91
2022/07/16 11:58:00;;;;;;;4.43;1.60;;;26.60;47.50;;;;;;5073566;28;20487;-90
2022/07/16 12:00:26;;;;;;;2.43;1.50;;;26.60;47.90;;;;;;5073090;28;20171;-91
2022/07/16 12:02:57;;;;;;;1.50;1.40;;;26.50;47.50;;;;;;5072116;28;20182;-91
2022/07/16 12:05:29;;;;;;;2.03;1.50;;;26.60;47.90;;;;;;5072914;28;20644;-92
2022/07/16 12:07:55;;;;;;;1.90;1.50;;;26.50;47.90;;;;;;5072381;28;20486;-89
2022/07/16 12:10:25;;;;;;;2.87;1.50;;;26.50;47.90;;;;;;5071176;28;20174;-91
2022/07/16 12:13:04;;;;;;;5.13;1.50;;;26.50;47.80;;;;;;5071863;28;20237;-91
2022/07/16 12:15:49;;;;;;;3.33;1.67;;;26.50;48.00;;;;;;5071153;28;20190;-91
2022/07/16 12:18:15;;;;;;;5.10;1.40;;;26.50;47.80;;;;;;5071952;28;20197;-90
2022/07/16 12:20:41;;;;;;;2.07;1.50;;;26.50;47.70;;;;;;5072632;28;20162;-91
2022/07/16 12:23:14;;;;;;;3.00;1.30;;;26.50;48.00;;;;;;5074420;28;20511;-91
2022/07/16 12:25:45;;;;;;;2.93;1.50;;;26.50;47.90;;;;;;5077019;28;20282;-91
2022/07/16 12:28:19;;;;;;;2.70;1.43;;;26.50;48.00;;;;;;5077057;28;20170;-91
2022/07/16 12:30:55;;;;;;;2.40;1.53;;;26.50;48.00;;;;;;5076054;28;20259;-91
2022/07/16 12:33:27;;;;;;;1.57;1.37;;;26.50;48.10;;;;;;5076430;28;20552;-91
2022/07/16 12:36:13;;;;;;;4.17;1.50;;;26.50;48.20;;;;;;5079074;28;20192;-92
2022/07/16 12:38:56;;;;;;;2.13;1.50;;;26.40;48.10;;;;;;5085345;28;20179;-94
2022/07/16 12:41:28;;;;;;;2.23;1.40;;;26.40;48.00;;;;;;5078070;28;20167;-93
2022/07/16 12:44:00;;;;;;;4.50;1.50;;;26.40;47.70;;;;;;5078907;28;20166;-94
2022/07/16 12:46:35;;;;;;;2.67;1.50;;;26.40;47.50;;;;;;5077602;28;20591;-92
2022/07/16 12:49:06;;;;;;;3.27;1.50;;;26.30;45.90;;;;;;5078908;28;20269;-93
2022/07/16 12:51:36;;;;;;;3.03;1.63;;;26.20;46.40;;;;;;5077018;28;20209;-94
2022/07/16 12:54:03;;;;;;;1.80;1.50;;;26.20;46.80;;;;;;5084010;28;20178;-93
2022/07/16 12:59:15;;;;;;;1.50;1.20;;;26.30;47.00;;;;;;5105582;28;20190;-95
2022/07/16 13:01:41;;;;;;;1.90;1.40;;;26.30;47.50;;;;;;5083226;28;20159;-93